createdAt,value
2017-10-26T00:00:02.884Z,5.23
2017-10-26T00:02:30.159Z,4.20
2017-10-26T00:04:57.424Z,3.33
2017-10-26T00:07:24.699Z,5.83
2017-10-26T00:09:51.998Z,3.83
2017-10-26T00:12:19.278Z,3.80
2017-10-26T00:14:46.539Z,4.30
2017-10-26T00:17:14.266Z,4.63
2017-10-26T00:19:41.530Z,5.43
2017-10-26T00:22:08.834Z,4.50
2017-10-26T00:24:36.097Z,5.43
2017-10-26T00:27:03.376Z,4.30
2017-10-26T00:29:30.635Z,4.83
2017-10-26T00:31:57.912Z,4.93
2017-10-26T00:34:25.171Z,4.60
2017-10-26T00:36:52.443Z,3.93
2017-10-26T00:39:19.711Z,4.37
2017-10-26T00:41:46.981Z,5.10
2017-10-26T00:44:14.239Z,4.50
2017-10-26T00:46:41.502Z,4.43
2017-10-26T00:49:08.788Z,6.10
2017-10-26T00:51:36.054Z,4.47
2017-10-26T00:54:03.500Z,4.30
2017-10-26T00:56:30.761Z,4.13
2017-10-26T00:58:58.041Z,4.00
2017-10-26T01:01:25.296Z,4.80
2017-10-26T01:03:52.578Z,4.97
2017-10-26T01:06:19.840Z,5.10
2017-10-26T01:08:47.117Z,5.50
2017-10-26T01:11:14.366Z,4.30
2017-10-26T01:13:41.755Z,4.03
2017-10-26T01:16:09.016Z,4.33
2017-10-26T01:18:36.299Z,5.40
2017-10-26T01:21:03.559Z,3.83
2017-10-26T01:23:30.847Z,5.10
2017-10-26T01:25:58.099Z,5.40
2017-10-26T01:28:25.380Z,5.23
2017-10-26T01:30:52.646Z,6.33
2017-10-26T01:33:19.927Z,6.73
2017-10-26T01:35:47.189Z,4.60
2017-10-26T01:38:14.507Z,5.40
2017-10-26T01:40:41.763Z,4.37
2017-10-26T01:43:09.045Z,4.67
2017-10-26T01:45:36.295Z,4.10
2017-10-26T01:48:03.632Z,7.10
2017-10-26T01:50:30.898Z,6.30
2017-10-26T01:52:58.183Z,6.90
2017-10-26T01:55:25.447Z,4.93
2017-10-26T01:57:52.742Z,4.73
2017-10-26T02:00:20.001Z,5.53
2017-10-26T02:02:47.251Z,4.87
2017-10-26T02:05:14.530Z,4.80
2017-10-26T02:07:41.786Z,4.90
2017-10-26T02:10:09.063Z,4.80
2017-10-26T02:12:36.323Z,5.70
2017-10-26T02:15:03.600Z,4.60
2017-10-26T02:17:30.851Z,4.40
2017-10-26T02:19:58.131Z,4.87
2017-10-26T02:22:25.386Z,5.23
2017-10-26T02:24:52.663Z,5.23
2017-10-26T02:27:19.955Z,5.70
2017-10-26T02:29:53.158Z,5.17
2017-10-26T02:32:20.417Z,4.73
2017-10-26T02:34:47.697Z,6.00
2017-10-26T02:37:14.948Z,6.40
2017-10-26T02:39:42.229Z,5.87
2017-10-26T02:42:09.499Z,5.33
2017-10-26T02:44:36.766Z,5.23
2017-10-26T02:47:04.029Z,7.20
2017-10-26T02:49:31.313Z,4.70
2017-10-26T02:51:58.570Z,6.67
2017-10-26T02:54:25.856Z,6.47
2017-10-26T02:56:53.120Z,5.30
2017-10-26T02:59:20.399Z,6.07
2017-10-26T03:01:47.669Z,5.17
2017-10-26T03:04:14.939Z,5.90
2017-10-26T03:06:42.200Z,5.37
2017-10-26T03:09:09.480Z,5.60
2017-10-26T03:11:36.731Z,5.60
2017-10-26T03:14:04.026Z,4.80
2017-10-26T03:16:31.295Z,5.40
2017-10-26T03:18:58.590Z,5.60
2017-10-26T03:21:25.855Z,5.50
2017-10-26T03:23:53.174Z,4.60
2017-10-26T03:26:20.443Z,5.37
2017-10-26T03:28:47.718Z,5.90
2017-10-26T03:31:15.041Z,4.90
2017-10-26T03:33:42.300Z,7.90
2017-10-26T03:36:09.583Z,5.83
2017-10-26T03:38:36.847Z,7.03
2017-10-26T03:41:04.131Z,6.70
2017-10-26T03:43:31.398Z,5.03
2017-10-26T03:45:58.677Z,6.27
2017-10-26T03:48:25.931Z,5.90
2017-10-26T03:50:53.231Z,5.80
2017-10-26T03:53:20.541Z,8.63
2017-10-26T03:55:47.807Z,5.90
2017-10-26T03:58:15.071Z,7.03
2017-10-26T04:00:42.347Z,6.50
2017-10-26T04:03:09.628Z,5.77
2017-10-26T04:05:36.931Z,5.07
2017-10-26T04:08:04.206Z,5.70
2017-10-26T04:10:31.499Z,6.77
2017-10-26T04:12:58.774Z,5.50
2017-10-26T04:15:26.094Z,7.47
2017-10-26T04:17:53.371Z,5.00
2017-10-26T04:20:20.638Z,6.07
2017-10-26T04:22:47.902Z,8.50
2017-10-26T04:25:15.192Z,6.13
2017-10-26T04:27:42.448Z,6.00
2017-10-26T04:30:09.728Z,5.97
2017-10-26T04:32:36.996Z,6.30
2017-10-26T04:35:04.300Z,6.10
2017-10-26T04:37:31.559Z,8.30
2017-10-26T04:39:58.859Z,8.33
2017-10-26T04:42:26.127Z,10.73
2017-10-26T04:44:53.431Z,8.60
2017-10-26T04:47:20.695Z,7.93
2017-10-26T04:49:47.970Z,6.90
2017-10-26T04:52:15.261Z,7.40
2017-10-26T04:54:42.558Z,6.90
2017-10-26T04:57:09.831Z,5.70
2017-10-26T04:59:37.994Z,5.53
2017-10-26T05:02:05.272Z,7.07
2017-10-26T05:04:32.558Z,6.00
2017-10-26T05:06:59.858Z,6.87
2017-10-26T05:09:27.129Z,5.67
2017-10-26T05:11:54.434Z,5.90
2017-10-26T05:14:21.716Z,10.37
2017-10-26T05:16:49.025Z,6.93
2017-10-26T05:19:16.356Z,6.60
2017-10-26T05:21:43.673Z,6.57
2017-10-26T05:24:10.985Z,6.00
2017-10-26T05:26:38.295Z,7.10
2017-10-26T05:29:05.596Z,5.93
2017-10-26T05:31:32.875Z,5.80
2017-10-26T05:34:00.171Z,7.33
2017-10-26T05:36:27.502Z,11.47
2017-10-26T05:38:54.772Z,7.87
2017-10-26T05:41:22.118Z,6.80
2017-10-26T05:43:49.395Z,9.30
2017-10-26T05:46:16.718Z,8.53
2017-10-26T05:48:44.013Z,8.27
2017-10-26T05:51:11.341Z,5.57
2017-10-26T05:53:38.654Z,6.50
2017-10-26T05:56:05.933Z,8.77
2017-10-26T05:58:33.210Z,6.97
2017-10-26T06:01:00.562Z,8.70
2017-10-26T06:03:27.865Z,5.97
2017-10-26T06:05:55.183Z,6.27
2017-10-26T06:08:22.494Z,10.47
2017-10-26T06:10:50.781Z,5.77
2017-10-26T06:13:18.166Z,5.20
2017-10-26T06:15:45.497Z,5.00
2017-10-26T06:18:12.857Z,5.50
2017-10-26T06:20:40.111Z,4.63
2017-10-26T06:23:07.383Z,5.00
2017-10-26T06:25:34.678Z,4.73
2017-10-26T06:28:01.942Z,7.80
2017-10-26T06:30:29.233Z,6.10
2017-10-26T06:32:56.560Z,5.37
2017-10-26T06:35:23.892Z,4.83
2017-10-26T06:37:51.314Z,5.80
2017-10-26T06:40:18.608Z,5.77
2017-10-26T06:42:45.971Z,5.03
2017-10-26T06:45:13.271Z,8.70
2017-10-26T06:47:40.577Z,5.97
2017-10-26T06:50:07.878Z,4.57
2017-10-26T06:52:35.215Z,5.07
2017-10-26T06:55:02.487Z,7.60
2017-10-26T06:57:29.826Z,4.83
2017-10-26T06:59:57.164Z,3.93
2017-10-26T07:02:24.465Z,5.17
2017-10-26T07:04:51.812Z,5.10
2017-10-26T07:07:19.093Z,4.47
2017-10-26T07:09:46.394Z,4.40
2017-10-26T07:12:13.707Z,7.13
2017-10-26T07:14:41.019Z,6.87
2017-10-26T07:17:08.343Z,4.50
2017-10-26T07:19:35.683Z,4.60
2017-10-26T07:22:02.980Z,5.03
2017-10-26T07:24:30.315Z,5.90
2017-10-26T07:26:57.635Z,4.50
2017-10-26T07:29:24.987Z,4.20
2017-10-26T07:31:52.297Z,4.27
2017-10-26T07:34:19.595Z,6.20
2017-10-26T07:36:46.929Z,4.90
2017-10-26T07:39:14.255Z,5.03
2017-10-26T07:41:41.618Z,4.23
2017-10-26T07:44:08.885Z,3.80
2017-10-26T07:46:36.921Z,4.00
2017-10-26T07:49:04.224Z,3.93
2017-10-26T07:51:31.532Z,3.70
2017-10-26T07:53:58.873Z,3.37
2017-10-26T07:56:26.242Z,2.87
2017-10-26T07:58:53.502Z,3.80
2017-10-26T08:01:20.831Z,3.63
2017-10-26T08:03:48.179Z,3.50
2017-10-26T08:06:15.458Z,3.53
2017-10-26T08:08:43.529Z,2.97
2017-10-26T08:11:10.837Z,3.43
2017-10-26T08:13:38.100Z,2.90
2017-10-26T08:16:05.426Z,3.50
2017-10-26T08:18:32.781Z,2.80
2017-10-26T08:21:00.143Z,2.87
2017-10-26T08:23:27.427Z,2.67
2017-10-26T08:25:54.731Z,2.90
2017-10-26T08:28:22.043Z,2.57
2017-10-26T08:30:49.366Z,2.90
2017-10-26T08:33:16.764Z,2.97
2017-10-26T08:35:44.041Z,2.27
2017-10-26T08:38:11.319Z,2.10
2017-10-26T08:40:38.656Z,1.90
2017-10-26T08:43:05.934Z,2.10
2017-10-26T08:45:33.232Z,2.30
2017-10-26T08:48:00.619Z,2.57
2017-10-26T08:50:27.940Z,2.33
2017-10-26T08:52:55.459Z,1.93
2017-10-26T08:55:22.758Z,2.00
2017-10-26T08:57:50.089Z,1.83
2017-10-26T09:00:17.424Z,2.00
2017-10-26T09:02:45.487Z,1.90
2017-10-26T09:05:12.791Z,2.23
2017-10-26T09:07:40.108Z,2.20
2017-10-26T09:10:07.416Z,1.97
2017-10-26T09:12:34.736Z,2.10
2017-10-26T09:15:02.064Z,2.03
2017-10-26T09:17:29.360Z,2.13
2017-10-26T09:19:56.703Z,2.53
2017-10-26T09:22:23.972Z,2.43
2017-10-26T09:24:51.288Z,2.30
2017-10-26T09:27:18.577Z,2.07
2017-10-26T09:29:45.869Z,2.67
2017-10-26T09:32:13.185Z,2.50
2017-10-26T09:34:40.455Z,2.40
2017-10-26T09:37:07.768Z,2.17
2017-10-26T09:39:35.087Z,2.60
2017-10-26T09:42:02.401Z,2.53
2017-10-26T09:44:29.740Z,2.67
2017-10-26T09:46:57.018Z,2.23
2017-10-26T09:49:24.308Z,2.40
2017-10-26T09:51:51.603Z,2.40
2017-10-26T09:54:18.881Z,2.60
2017-10-26T09:56:46.176Z,2.20
2017-10-26T09:59:13.494Z,2.80
2017-10-26T10:01:40.767Z,2.50
2017-10-26T10:04:08.084Z,2.40
2017-10-26T10:06:35.426Z,2.43
2017-10-26T10:09:02.996Z,2.50
2017-10-26T10:11:30.268Z,2.03
2017-10-26T10:13:57.582Z,2.30
2017-10-26T10:16:24.879Z,2.33
2017-10-26T10:18:52.167Z,2.40
2017-10-26T10:21:19.437Z,2.40
2017-10-26T10:23:46.748Z,1.97
2017-10-26T10:26:14.057Z,2.17
2017-10-26T10:28:41.368Z,2.20
2017-10-26T10:31:08.653Z,2.30
2017-10-26T10:33:35.997Z,2.20
2017-10-26T10:36:03.264Z,2.30
2017-10-26T10:38:30.539Z,2.43
2017-10-26T10:40:57.833Z,1.93
2017-10-26T10:43:25.127Z,1.87
2017-10-26T10:45:52.445Z,2.10
2017-10-26T10:48:19.716Z,1.67
2017-10-26T10:50:47.023Z,1.90
2017-10-26T10:53:14.312Z,2.00
2017-10-26T10:55:41.634Z,1.53
2017-10-26T10:58:08.936Z,1.90
2017-10-26T11:00:36.191Z,1.70
2017-10-26T11:03:03.546Z,2.60
2017-10-26T11:05:30.804Z,2.60
2017-10-26T11:07:58.100Z,2.17
2017-10-26T11:10:25.429Z,2.47
2017-10-26T11:12:52.696Z,2.00
2017-10-26T11:15:19.976Z,2.10
2017-10-26T11:17:47.326Z,2.03
2017-10-26T11:20:14.611Z,2.30
2017-10-26T11:22:41.896Z,1.80
2017-10-26T11:25:09.211Z,1.90
2017-10-26T11:27:36.472Z,2.00
2017-10-26T11:30:03.764Z,1.83
2017-10-26T11:32:31.056Z,1.40
2017-10-26T11:34:58.374Z,1.70
2017-10-26T11:37:25.686Z,1.50
2017-10-26T11:39:52.977Z,1.50
2017-10-26T11:42:20.316Z,1.40
2017-10-26T11:44:47.604Z,1.57
2017-10-26T11:47:14.879Z,1.80
2017-10-26T11:49:42.174Z,1.60
2017-10-26T11:52:09.464Z,1.70
2017-10-26T11:54:36.791Z,1.53
2017-10-26T11:57:04.091Z,1.60
2017-10-26T11:59:31.366Z,1.63
2017-10-26T12:01:58.712Z,1.70
2017-10-26T12:04:25.981Z,1.80
2017-10-26T12:06:53.301Z,2.00
2017-10-26T12:09:20.581Z,1.90
2017-10-26T12:11:47.853Z,1.83
2017-10-26T12:14:15.142Z,1.70
2017-10-26T12:16:42.419Z,1.80
2017-10-26T12:19:09.755Z,1.90
2017-10-26T12:21:37.043Z,1.40
2017-10-26T12:24:04.376Z,1.50
2017-10-26T12:26:31.708Z,1.63
2017-10-26T12:28:58.978Z,1.43
2017-10-26T12:31:26.278Z,1.37
2017-10-26T12:33:53.545Z,1.30
2017-10-26T12:36:20.887Z,1.43
2017-10-26T12:38:48.191Z,1.60
2017-10-26T12:41:15.467Z,1.50
2017-10-26T12:43:42.794Z,1.30
2017-10-26T12:46:10.082Z,1.03
2017-10-26T12:48:37.353Z,1.70
2017-10-26T12:51:04.992Z,1.63
2017-10-26T12:53:32.257Z,1.23
2017-10-26T12:55:59.555Z,1.43
2017-10-26T12:58:26.868Z,1.40
2017-10-26T13:00:54.184Z,1.33
2017-10-26T13:03:21.486Z,1.30
2017-10-26T13:05:48.765Z,1.20
2017-10-26T13:08:16.059Z,1.23
2017-10-26T13:10:43.328Z,1.10
2017-10-26T13:13:10.639Z,1.23
2017-10-26T13:15:37.905Z,1.33
2017-10-26T13:18:05.193Z,1.40
2017-10-26T13:20:32.691Z,1.40
2017-10-26T13:22:59.990Z,1.13
2017-10-26T13:25:27.259Z,1.33
2017-10-26T13:27:54.578Z,1.37
2017-10-26T13:30:21.876Z,1.43
2017-10-26T13:32:49.169Z,1.40
2017-10-26T13:35:16.755Z,1.07
2017-10-26T13:37:44.061Z,1.30
2017-10-26T13:40:11.359Z,1.30
2017-10-26T13:42:38.655Z,1.40
2017-10-26T13:45:05.936Z,1.00
2017-10-26T13:47:33.229Z,1.03
2017-10-26T13:50:00.520Z,1.00
2017-10-26T13:52:27.797Z,1.13
2017-10-26T13:54:55.082Z,1.10
2017-10-26T13:57:22.348Z,1.33
2017-10-26T13:59:49.660Z,0.97
2017-10-26T14:02:16.957Z,1.50
2017-10-26T14:04:44.274Z,1.30
2017-10-26T14:07:11.580Z,1.40
2017-10-26T14:09:38.851Z,1.33
2017-10-26T14:12:06.179Z,1.10
2017-10-26T14:14:33.464Z,1.67
2017-10-26T14:17:00.770Z,1.87
2017-10-26T14:19:28.054Z,1.67
2017-10-26T14:21:55.345Z,1.10
2017-10-26T14:24:22.643Z,1.03
2017-10-26T14:26:50.468Z,1.33
2017-10-26T14:29:17.776Z,1.40
2017-10-26T14:31:45.069Z,1.23
2017-10-26T14:34:12.354Z,1.30
2017-10-26T14:36:39.635Z,1.33
2017-10-26T14:39:06.933Z,1.20
2017-10-26T14:41:34.458Z,1.20
2017-10-26T14:44:01.718Z,1.30
2017-10-26T14:46:28.999Z,1.40
2017-10-26T14:48:56.328Z,1.23
2017-10-26T14:51:23.619Z,1.33
2017-10-26T14:53:50.919Z,1.30
2017-10-26T14:56:18.252Z,1.10
2017-10-26T14:58:45.562Z,1.17
2017-10-26T15:01:12.826Z,1.07
2017-10-26T15:03:40.112Z,1.37
2017-10-26T15:06:07.408Z,1.03
2017-10-26T15:08:34.693Z,1.10
2017-10-26T15:11:01.957Z,1.00
2017-10-26T15:13:29.252Z,1.20
2017-10-26T15:15:56.561Z,1.10
2017-10-26T15:18:23.886Z,1.00
2017-10-26T15:20:51.150Z,0.90
2017-10-26T15:23:18.439Z,1.03
2017-10-26T15:25:46.484Z,1.00
2017-10-26T15:28:13.758Z,1.03
2017-10-26T15:30:41.064Z,1.40
2017-10-26T15:33:08.346Z,1.20
2017-10-26T15:35:35.614Z,1.30
2017-10-26T15:38:02.929Z,1.33
2017-10-26T15:40:30.231Z,1.20
2017-10-26T15:42:57.511Z,1.00
2017-10-26T15:45:24.828Z,1.20
2017-10-26T15:47:52.100Z,1.43
2017-10-26T15:50:19.364Z,1.30
2017-10-26T15:52:46.671Z,1.20
2017-10-26T15:55:13.956Z,1.47
2017-10-26T15:57:41.258Z,1.30
2017-10-26T16:00:08.539Z,1.20
2017-10-26T16:02:35.872Z,1.10
2017-10-26T16:05:03.163Z,1.03
2017-10-26T16:07:30.432Z,1.30
2017-10-26T16:09:57.754Z,1.10
2017-10-26T16:12:25.092Z,1.77
2017-10-26T16:14:52.371Z,1.40
2017-10-26T16:17:19.694Z,1.20
2017-10-26T16:19:46.952Z,1.07
2017-10-26T16:22:14.227Z,1.37
2017-10-26T16:24:41.525Z,1.20
2017-10-26T16:27:08.787Z,1.37
2017-10-26T16:29:36.054Z,1.47
2017-10-26T16:32:03.400Z,1.40
2017-10-26T16:34:30.669Z,1.30
2017-10-26T16:36:57.946Z,1.30
2017-10-26T16:39:25.253Z,1.40
2017-10-26T16:41:52.551Z,1.03
2017-10-26T16:44:19.831Z,1.10
2017-10-26T16:46:47.119Z,1.40
2017-10-26T16:49:14.424Z,1.30
2017-10-26T16:51:41.734Z,1.50
2017-10-26T16:54:09.030Z,1.30
2017-10-26T16:56:36.318Z,1.43
2017-10-26T16:59:03.583Z,1.13
2017-10-26T17:01:30.875Z,1.30
2017-10-26T17:03:58.173Z,1.53
2017-10-26T17:06:25.476Z,1.30
2017-10-26T17:08:52.775Z,1.23
2017-10-26T17:11:20.039Z,1.30
2017-10-26T17:13:47.338Z,1.30
2017-10-26T17:16:14.605Z,1.60
2017-10-26T17:18:41.926Z,2.07
2017-10-26T17:21:09.286Z,1.33
2017-10-26T17:23:37.270Z,1.30
2017-10-26T17:26:04.563Z,1.80
2017-10-26T17:28:31.869Z,1.70
2017-10-26T17:30:59.199Z,1.40
2017-10-26T17:33:26.520Z,1.43
2017-10-26T17:35:53.788Z,1.40
2017-10-26T17:38:21.086Z,1.20
2017-10-26T17:40:48.436Z,1.33
2017-10-26T17:43:15.724Z,1.67
2017-10-26T17:45:43.009Z,1.40
2017-10-26T17:48:10.305Z,1.40
2017-10-26T17:50:37.623Z,1.77
2017-10-26T17:53:04.939Z,1.53
2017-10-26T17:55:32.237Z,1.40
2017-10-26T17:57:59.531Z,1.47
2017-10-26T18:00:26.851Z,1.80
2017-10-26T18:02:54.149Z,1.50
2017-10-26T18:05:21.424Z,1.80
2017-10-26T18:07:48.734Z,1.97
2017-10-26T18:10:16.009Z,2.00
2017-10-26T18:12:43.336Z,1.97
2017-10-26T18:15:10.659Z,2.20
2017-10-26T18:17:38.033Z,2.10
2017-10-26T18:20:05.334Z,2.20
2017-10-26T18:22:32.613Z,2.40
2017-10-26T18:24:59.862Z,2.40
2017-10-26T18:27:27.171Z,2.53
2017-10-26T18:29:54.434Z,2.60
2017-10-26T18:32:21.697Z,2.90
2017-10-26T18:34:48.986Z,3.20
2017-10-26T18:37:16.246Z,3.27
2017-10-26T18:39:43.510Z,2.93
2017-10-26T18:42:10.814Z,2.87
2017-10-26T18:44:38.083Z,3.30
2017-10-26T18:47:05.347Z,4.23
2017-10-26T18:49:32.635Z,4.00
2017-10-26T18:51:59.903Z,4.50
2017-10-26T18:54:27.206Z,3.90
2017-10-26T18:56:54.496Z,4.30
2017-10-26T18:59:21.772Z,5.33
2017-10-26T19:01:49.024Z,4.90
2017-10-26T19:04:16.315Z,4.03
2017-10-26T19:06:43.582Z,4.87
2017-10-26T19:09:10.872Z,4.37
2017-10-26T19:11:38.136Z,4.27
2017-10-26T19:14:05.430Z,4.03
2017-10-26T19:16:32.683Z,3.70
2017-10-26T19:18:59.975Z,3.83
2017-10-26T19:21:27.266Z,3.63
2017-10-26T19:23:54.530Z,3.90
2017-10-26T19:26:21.818Z,3.00
2017-10-26T19:28:49.104Z,3.87
2017-10-26T19:31:16.347Z,3.63
2017-10-26T19:33:43.676Z,3.37
2017-10-26T19:36:10.939Z,5.00
2017-10-26T19:38:38.192Z,4.70
2017-10-26T19:41:05.483Z,4.80
2017-10-26T19:43:32.760Z,5.57
2017-10-26T19:46:00.094Z,5.23
2017-10-26T19:48:27.358Z,5.07
2017-10-26T19:50:54.619Z,5.10
2017-10-26T19:53:21.922Z,5.67
2017-10-26T19:55:49.192Z,5.63
2017-10-26T20:00:50.206Z,6.97
2017-10-26T20:03:17.472Z,5.83
2017-10-26T20:05:44.735Z,6.10
2017-10-26T20:08:12.053Z,7.63
2017-10-26T20:10:39.318Z,7.20
2017-10-26T20:13:06.659Z,7.30
2017-10-26T20:15:33.954Z,7.00
2017-10-26T20:18:01.263Z,7.97
2017-10-26T20:20:28.566Z,7.70
2017-10-26T20:22:55.852Z,7.50
2017-10-26T20:25:23.189Z,7.00
2017-10-26T20:27:51.401Z,8.30
2017-10-26T20:30:18.683Z,7.63
2017-10-26T20:32:45.987Z,7.83
2017-10-26T20:35:13.292Z,7.43
2017-10-26T20:37:40.621Z,8.13
2017-10-26T20:40:07.929Z,8.47
2017-10-26T20:42:35.223Z,8.50
2017-10-26T20:45:02.565Z,9.10
2017-10-26T20:47:29.879Z,8.27
2017-10-26T20:50:02.948Z,8.20
2017-10-26T20:52:35.999Z,8.03
2017-10-26T20:55:23.073Z,9.50
2017-10-26T20:57:56.216Z,10.07
2017-10-26T21:00:29.048Z,9.57
2017-10-26T21:03:02.167Z,10.00
2017-10-26T21:05:35.331Z,10.13
2017-10-26T21:08:05.475Z,10.30
2017-10-26T21:10:38.476Z,10.03
2017-10-26T21:13:11.718Z,11.73
2017-10-26T21:15:39.018Z,10.03
2017-10-26T21:18:06.342Z,10.23
2017-10-26T21:20:33.645Z,11.13
2017-10-26T21:23:00.948Z,8.90
2017-10-26T21:25:28.267Z,9.50
2017-10-26T21:27:55.570Z,10.67
2017-10-26T21:30:22.896Z,9.93
2017-10-26T21:32:50.183Z,11.13
2017-10-26T21:35:17.518Z,11.30
2017-10-26T21:37:45.751Z,10.37
2017-10-26T21:40:13.089Z,9.83
2017-10-26T21:42:40.397Z,11.47
2017-10-26T21:45:07.670Z,10.23
2017-10-26T21:47:34.971Z,9.87
2017-10-26T21:50:02.263Z,9.00
2017-10-26T21:52:29.559Z,9.93
2017-10-26T21:54:56.901Z,9.67
2017-10-26T21:57:24.182Z,9.67
2017-10-26T21:59:51.489Z,9.27
2017-10-26T22:02:18.815Z,8.87
2017-10-26T22:04:46.127Z,8.63
2017-10-26T22:07:13.422Z,7.40
2017-10-26T22:09:40.726Z,9.47
2017-10-26T22:12:08.050Z,10.60
2017-10-26T22:14:35.384Z,11.60
2017-10-26T22:17:02.720Z,11.00
2017-10-26T22:19:30.064Z,11.17
2017-10-26T22:21:57.364Z,10.10
2017-10-26T22:24:24.660Z,11.90
2017-10-26T22:26:52.011Z,11.00
2017-10-26T22:29:19.288Z,10.80
2017-10-26T22:31:46.616Z,10.20
2017-10-26T22:34:13.915Z,10.57
2017-10-26T22:36:41.244Z,10.07
2017-10-26T22:39:08.561Z,10.60
2017-10-26T22:41:35.879Z,11.13
2017-10-26T22:44:03.208Z,10.30
2017-10-26T22:46:30.502Z,10.37
2017-10-26T22:48:57.821Z,10.63
2017-10-26T22:51:25.157Z,10.60
2017-10-26T22:53:52.432Z,9.73
2017-10-26T22:56:19.752Z,10.40
2017-10-26T22:58:47.097Z,11.27
2017-10-26T23:01:14.404Z,11.77
2017-10-26T23:03:41.738Z,9.83
2017-10-26T23:06:09.072Z,10.93
2017-10-26T23:08:36.314Z,11.20
2017-10-26T23:11:03.641Z,10.13
2017-10-26T23:13:30.925Z,10.37
2017-10-26T23:15:58.236Z,9.87
2017-10-26T23:18:25.514Z,11.33
2017-10-26T23:20:52.823Z,10.97
2017-10-26T23:23:20.177Z,11.00
2017-10-26T23:25:47.450Z,10.20
2017-10-26T23:36:59.056Z,10.23
2017-10-26T23:39:26.379Z,10.73
2017-10-26T23:41:53.701Z,10.13
2017-10-26T23:44:20.989Z,11.07
2017-10-26T23:46:48.329Z,9.90
2017-10-26T23:49:15.633Z,10.07
2017-10-26T23:51:42.934Z,12.10
2017-10-26T23:54:10.257Z,10.60
2017-10-26T23:56:37.552Z,11.30
2017-10-26T23:59:04.907Z,11.13
